createdAt,value
2022-11-29T00:01:41.473Z,14.80
2022-11-29T00:04:09.315Z,12.55
2022-11-29T00:06:40.582Z,13.02
2022-11-29T00:09:12.302Z,14.60
2022-11-29T00:11:58.635Z,11.43
2022-11-29T00:14:27.242Z,12.38
2022-11-29T00:16:57.427Z,13.63
2022-11-29T00:19:25.916Z,10.25
2022-11-29T00:21:53.680Z,13.35
2022-11-29T00:24:21.642Z,11.77
2022-11-29T00:26:49.616Z,12.80
2022-11-29T00:29:17.354Z,9.43
2022-11-29T00:31:45.764Z,13.32
2022-11-29T00:34:13.883Z,12.88
2022-11-29T00:36:45.156Z,15.95
2022-11-29T00:39:13.357Z,10.38
2022-11-29T00:41:41.290Z,12.35
2022-11-29T00:44:09.553Z,14.00
2022-11-29T00:46:37.843Z,12.77
2022-11-29T00:49:07.042Z,13.30
2022-11-29T00:51:35.008Z,14.02
2022-11-29T00:54:04.529Z,13.80
2022-11-29T00:56:32.356Z,12.77
2022-11-29T00:58:59.860Z,17.17
2022-11-29T01:01:29.048Z,15.32
2022-11-29T01:03:56.835Z,15.43
2022-11-29T01:06:24.562Z,15.65
2022-11-29T01:08:52.362Z,15.82
2022-11-29T01:11:25.841Z,15.98
2022-11-29T01:14:04.761Z,15.88
2022-11-29T01:16:33.100Z,16.13
2022-11-29T01:19:03.595Z,17.85
2022-11-29T01:21:31.940Z,16.38
2022-11-29T01:24:00.460Z,16.60
2022-11-29T01:26:30.141Z,17.77
2022-11-29T01:29:01.053Z,20.25
2022-11-29T01:31:31.826Z,17.90
2022-11-29T01:34:02.765Z,18.63
2022-11-29T01:36:31.873Z,14.40
2022-11-29T01:39:02.937Z,15.95
2022-11-29T01:41:33.536Z,18.67
2022-11-29T01:44:22.941Z,15.63
2022-11-29T01:46:50.850Z,17.63
2022-11-29T01:49:27.739Z,16.88
2022-11-29T01:52:06.461Z,15.00
2022-11-29T01:54:41.419Z,18.20
2022-11-29T01:57:10.269Z,18.17
2022-11-29T01:59:44.907Z,17.90
2022-11-29T02:02:16.064Z,18.42
2022-11-29T02:04:46.220Z,16.25
2022-11-29T02:07:14.398Z,20.42
2022-11-29T02:09:42.183Z,19.15
2022-11-29T02:12:35.120Z,17.85
2022-11-29T02:15:27.514Z,19.63
2022-11-29T02:18:11.101Z,16.92
2022-11-29T02:21:09.048Z,19.48
2022-11-29T02:24:05.389Z,17.55
2022-11-29T02:27:00.099Z,17.08
2022-11-29T02:29:47.548Z,18.67
2022-11-29T02:32:45.619Z,14.48
2022-11-29T02:35:43.569Z,14.80
2022-11-29T02:38:11.455Z,12.45
2022-11-29T02:40:56.989Z,13.20
2022-11-29T02:43:50.474Z,14.85
2022-11-29T02:46:43.126Z,15.95
2022-11-29T02:49:40.373Z,14.45
2022-11-29T02:52:19.619Z,14.73
2022-11-29T02:54:55.492Z,12.13
2022-11-29T02:57:38.618Z,12.70
2022-11-29T03:00:11.401Z,13.05
2022-11-29T03:03:01.664Z,14.17
2022-11-29T03:05:57.623Z,14.50
2022-11-29T03:08:41.150Z,15.70
2022-11-29T03:11:39.238Z,12.40
2022-11-29T03:14:22.891Z,15.53
2022-11-29T03:17:15.093Z,15.32
2022-11-29T03:20:02.381Z,12.47
2022-11-29T03:23:05.004Z,14.23
2022-11-29T03:25:41.009Z,12.53
2022-11-29T03:28:25.001Z,12.67
2022-11-29T03:31:20.030Z,12.77
2022-11-29T03:33:58.545Z,10.93
2022-11-29T03:36:42.749Z,11.33
2022-11-29T03:39:18.830Z,12.93
2022-11-29T03:41:55.772Z,11.73
2022-11-29T03:44:33.910Z,16.30
2022-11-29T03:47:20.006Z,14.33
2022-11-29T03:49:54.904Z,13.70
2022-11-29T03:52:29.492Z,15.05
2022-11-29T03:55:25.816Z,13.30
2022-11-29T03:58:16.764Z,10.10
2022-11-29T04:01:09.648Z,14.83
2022-11-29T04:06:44.369Z,13.03
2022-11-29T04:09:39.774Z,16.30
2022-11-29T04:12:27.445Z,13.70
2022-11-29T04:15:25.853Z,13.30
2022-11-29T04:18:18.578Z,19.70
2022-11-29T04:21:01.903Z,14.32
2022-11-29T04:23:53.620Z,13.80
2022-11-29T04:26:47.183Z,12.53
2022-11-29T04:29:25.084Z,15.07
2022-11-29T04:32:20.983Z,13.03
2022-11-29T04:35:20.251Z,13.30
2022-11-29T04:38:22.893Z,14.43
2022-11-29T04:41:14.327Z,10.52
2022-11-29T04:44:04.817Z,13.33
2022-11-29T04:46:49.279Z,13.70
2022-11-29T04:49:47.375Z,11.00
2022-11-29T04:52:38.645Z,14.10
2022-11-29T04:55:31.142Z,12.70
2022-11-29T04:58:21.887Z,14.35
2022-11-29T05:01:12.628Z,14.97
2022-11-29T05:03:55.379Z,16.20
2022-11-29T05:06:45.857Z,15.00
2022-11-29T05:09:51.755Z,13.30
2022-11-29T05:12:38.944Z,14.00
2022-11-29T05:15:41.826Z,13.90
2022-11-29T05:18:32.831Z,12.63
2022-11-29T05:21:14.519Z,14.03
2022-11-29T05:24:12.120Z,15.27
2022-11-29T05:26:56.817Z,15.20
2022-11-29T05:29:44.551Z,17.60
2022-11-29T05:32:35.786Z,17.43
2022-11-29T05:35:26.777Z,22.90
2022-11-29T05:38:17.781Z,18.07
2022-11-29T05:41:09.531Z,21.37
2022-11-29T05:43:53.172Z,24.27
2022-11-29T05:46:46.515Z,20.93
2022-11-29T05:49:40.588Z,18.43
2022-11-29T05:52:35.839Z,24.10
2022-11-29T05:55:20.108Z,18.50
2022-11-29T05:58:09.293Z,19.33
2022-11-29T06:00:54.840Z,17.63
2022-11-29T06:03:44.285Z,19.03
2022-11-29T06:06:33.201Z,18.57
2022-11-29T06:09:11.383Z,21.47
2022-11-29T06:11:49.236Z,22.17
2022-11-29T06:14:45.196Z,21.93
2022-11-29T06:17:42.973Z,19.47
2022-11-29T06:20:33.842Z,18.43
2022-11-29T06:23:24.545Z,24.73
2022-11-29T06:26:07.576Z,25.00
2022-11-29T06:28:51.496Z,24.83
2022-11-29T06:31:32.899Z,21.57
2022-11-29T06:34:20.572Z,24.10
2022-11-29T06:36:53.824Z,21.20
2022-11-29T06:39:22.542Z,22.50
2022-11-29T06:41:53.102Z,18.63
2022-11-29T06:44:24.257Z,19.30
2022-11-29T06:47:05.581Z,20.20
2022-11-29T06:49:43.248Z,23.60
2022-11-29T06:52:23.014Z,20.37
2022-11-29T06:55:22.603Z,22.40
2022-11-29T06:58:14.158Z,21.63
2022-11-29T07:00:55.675Z,24.80
2022-11-29T07:03:54.073Z,23.10
2022-11-29T07:06:26.358Z,21.37
2022-11-29T07:09:00.803Z,20.50
2022-11-29T07:11:29.057Z,23.90
2022-11-29T07:13:58.912Z,26.57
2022-11-29T07:16:37.445Z,23.07
2022-11-29T07:19:35.348Z,23.20
2022-11-29T07:22:33.781Z,29.33
2022-11-29T07:25:24.677Z,21.10
2022-11-29T07:28:17.204Z,24.40
2022-11-29T07:31:12.654Z,19.88
2022-11-29T07:33:55.747Z,22.50
2022-11-29T07:36:44.281Z,25.40
2022-11-29T07:39:23.451Z,22.63
2022-11-29T07:42:10.601Z,20.87
2022-11-29T07:45:02.467Z,20.00
2022-11-29T07:47:35.786Z,19.67
2022-11-29T07:50:04.120Z,20.38
2022-11-29T07:52:32.343Z,21.43
2022-11-29T07:55:00.194Z,19.50
2022-11-29T07:57:29.508Z,17.13
2022-11-29T07:59:57.405Z,18.90
2022-11-29T08:02:32.770Z,19.77
2022-11-29T08:05:01.927Z,19.33
2022-11-29T08:07:31.702Z,18.67
2022-11-29T08:10:00.768Z,18.53
2022-11-29T08:12:28.538Z,20.70
2022-11-29T08:14:56.303Z,19.03
2022-11-29T08:17:25.176Z,17.23
2022-11-29T08:19:53.412Z,21.30
2022-11-29T08:22:21.295Z,22.77
2022-11-29T08:24:51.744Z,18.27
2022-11-29T08:27:19.464Z,17.70
2022-11-29T08:29:49.213Z,21.23
2022-11-29T08:32:17.127Z,16.73
2022-11-29T08:34:45.095Z,17.93
2022-11-29T08:37:13.248Z,17.53
2022-11-29T08:39:41.442Z,15.53
2022-11-29T08:42:09.231Z,15.70
2022-11-29T08:44:39.273Z,18.33
2022-11-29T08:47:22.061Z,19.70
2022-11-29T08:50:04.856Z,18.60
2022-11-29T08:52:51.555Z,16.97
2022-11-29T08:55:21.558Z,18.00
2022-11-29T08:57:50.480Z,18.07
2022-11-29T09:00:19.263Z,18.87
2022-11-29T09:02:49.796Z,16.70
2022-11-29T09:05:17.261Z,20.75
2022-11-29T09:08:00.027Z,20.17
2022-11-29T09:10:27.520Z,23.70
2022-11-29T09:12:58.127Z,27.60
2022-11-29T09:15:25.552Z,21.70
2022-11-29T09:17:52.995Z,23.70
2022-11-29T09:20:20.574Z,23.63
2022-11-29T09:22:50.577Z,24.23
2022-11-29T09:25:20.304Z,27.60
2022-11-29T09:27:47.852Z,21.95
2022-11-29T09:30:23.448Z,22.17
2022-11-29T09:32:54.206Z,19.63
2022-11-29T09:35:26.284Z,18.65
2022-11-29T09:37:53.723Z,16.58
2022-11-29T09:40:30.157Z,16.95
2022-11-29T09:43:11.876Z,15.15
2022-11-29T09:45:43.877Z,19.33
2022-11-29T09:48:42.957Z,17.77
2022-11-29T09:51:42.672Z,17.27
2022-11-29T09:54:42.155Z,17.73
2022-11-29T09:57:11.359Z,20.58
2022-11-29T09:59:43.567Z,18.80
2022-11-29T10:02:38.397Z,16.10
2022-11-29T10:05:21.811Z,21.35
2022-11-29T10:08:09.512Z,23.48
2022-11-29T10:10:45.013Z,21.02
2022-11-29T10:13:24.833Z,17.55
2022-11-29T10:15:55.544Z,20.20
2022-11-29T10:18:38.410Z,20.88
2022-11-29T10:21:17.779Z,21.08
2022-11-29T10:23:54.946Z,19.73
2022-11-29T10:26:33.572Z,21.73
2022-11-29T10:29:02.903Z,21.83
2022-11-29T10:31:36.236Z,20.48
2022-11-29T10:34:19.342Z,19.38
2022-11-29T10:36:51.358Z,20.52
2022-11-29T10:39:39.897Z,23.23
2022-11-29T10:42:36.251Z,22.73
2022-11-29T10:45:08.391Z,20.90
2022-11-29T10:47:36.512Z,19.35
2022-11-29T10:50:05.538Z,19.88
2022-11-29T10:52:39.932Z,18.92
2022-11-29T10:55:14.897Z,20.38
2022-11-29T10:58:13.492Z,20.88
2022-11-29T11:00:53.289Z,24.25
2022-11-29T11:03:40.917Z,20.70
2022-11-29T11:06:25.301Z,23.42
2022-11-29T11:09:11.700Z,21.90
2022-11-29T11:11:40.143Z,20.55
2022-11-29T11:14:31.614Z,18.10
2022-11-29T11:17:33.037Z,20.40
2022-11-29T11:20:11.138Z,20.70
2022-11-29T11:22:40.348Z,24.58
2022-11-29T11:25:29.612Z,22.85
2022-11-29T11:28:10.917Z,23.20
2022-11-29T11:30:39.039Z,25.83
2022-11-29T11:33:20.300Z,24.10
2022-11-29T11:36:10.392Z,22.20
2022-11-29T11:38:50.717Z,23.35
2022-11-29T11:41:43.087Z,27.48
2022-11-29T11:44:46.876Z,28.98
2022-11-29T11:47:29.331Z,27.63
2022-11-29T11:50:11.732Z,28.38
2022-11-29T11:53:02.503Z,28.17
2022-11-29T11:55:35.031Z,31.95
2022-11-29T11:58:10.714Z,27.05
2022-11-29T12:01:03.558Z,32.03
2022-11-29T12:03:39.917Z,28.15
2022-11-29T12:06:25.946Z,29.55
2022-11-29T12:09:02.690Z,24.77
2022-11-29T12:11:41.605Z,32.77
2022-11-29T12:14:18.691Z,27.53
2022-11-29T12:16:47.904Z,27.73
2022-11-29T12:19:20.908Z,28.60
2022-11-29T12:21:53.078Z,22.67
2022-11-29T12:36:47.716Z,28.83
2022-11-29T12:39:36.036Z,27.43
2022-11-29T12:42:36.488Z,22.63
2022-11-29T12:45:34.935Z,20.03
2022-11-29T12:48:14.854Z,23.80
2022-11-29T12:51:07.880Z,21.83
2022-11-29T12:56:27.989Z,23.77
2022-11-29T12:59:26.303Z,23.83
2022-11-29T13:02:24.398Z,21.00
2022-11-29T13:05:01.211Z,26.93
2022-11-29T13:08:02.417Z,24.07
2022-11-29T13:11:01.650Z,29.97
2022-11-29T13:13:39.395Z,23.93
2022-11-29T13:16:30.851Z,23.10
2022-11-29T13:19:18.957Z,23.40
2022-11-29T13:22:09.293Z,22.87
2022-11-29T13:24:43.384Z,22.80
2022-11-29T13:27:19.832Z,26.17
2022-11-29T13:29:47.710Z,26.90
2022-11-29T13:32:34.469Z,28.73
2022-11-29T13:35:24.610Z,23.77
2022-11-29T13:37:59.853Z,27.23
2022-11-29T13:41:03.442Z,26.73
2022-11-29T13:43:51.848Z,28.50
2022-11-29T13:46:42.543Z,28.60
2022-11-29T13:49:41.127Z,25.33
2022-11-29T13:52:37.025Z,27.30
2022-11-29T13:55:23.101Z,26.30
2022-11-29T13:58:31.711Z,27.00
2022-11-29T14:01:09.107Z,28.10
2022-11-29T14:03:43.887Z,29.30
2022-11-29T14:06:22.151Z,25.77
2022-11-29T14:09:17.963Z,29.07
2022-11-29T14:11:43.424Z,26.87
2022-11-29T14:14:16.379Z,27.67
2022-11-29T14:16:43.722Z,27.30
2022-11-29T14:19:11.193Z,23.57
2022-11-29T14:21:56.929Z,27.07
2022-11-29T14:24:35.948Z,25.43
2022-11-29T14:27:10.137Z,25.23
2022-11-29T14:29:49.552Z,34.67
2022-11-29T14:32:58.306Z,27.07
2022-11-29T14:35:40.185Z,26.00
2022-11-29T14:38:34.807Z,33.10
2022-11-29T14:41:21.324Z,25.23
2022-11-29T14:43:48.904Z,24.37
2022-11-29T14:46:16.945Z,25.47
2022-11-29T14:48:55.975Z,25.93
2022-11-29T14:51:25.662Z,24.83
2022-11-29T14:54:03.834Z,28.23
2022-11-29T14:56:42.562Z,25.73
2022-11-29T14:59:46.234Z,28.50
2022-11-29T15:02:41.395Z,23.67
2022-11-29T15:05:28.954Z,27.83
2022-11-29T15:08:19.360Z,26.13
2022-11-29T15:10:57.861Z,30.30
2022-11-29T15:13:34.276Z,26.93
2022-11-29T15:16:40.837Z,27.23
2022-11-29T15:19:49.010Z,27.70
2022-11-29T15:22:16.739Z,24.50
2022-11-29T15:24:51.941Z,24.93
2022-11-29T15:27:19.643Z,24.37
2022-11-29T15:29:48.549Z,22.20
2022-11-29T15:32:31.173Z,23.43
2022-11-29T15:34:59.075Z,24.23
2022-11-29T15:37:26.861Z,26.13
2022-11-29T15:40:19.578Z,24.80
2022-11-29T15:42:51.481Z,18.48
2022-11-29T15:45:27.596Z,22.92
2022-11-29T15:47:55.422Z,25.17
2022-11-29T15:50:34.103Z,22.53
2022-11-29T15:53:05.816Z,24.43
2022-11-29T15:55:33.662Z,23.80
2022-11-29T15:58:08.478Z,26.17
2022-11-29T16:00:36.835Z,22.20
2022-11-29T16:03:06.317Z,26.33
2022-11-29T16:05:38.699Z,26.30
2022-11-29T16:08:16.752Z,22.58
2022-11-29T16:10:52.969Z,27.03
2022-11-29T16:13:31.280Z,27.00
2022-11-29T16:16:15.624Z,25.50
2022-11-29T16:18:45.481Z,25.77
2022-11-29T16:21:33.013Z,24.43
2022-11-29T16:24:19.462Z,27.90
2022-11-29T16:26:49.830Z,23.27
2022-11-29T16:29:38.469Z,24.37
2022-11-29T16:32:31.693Z,23.80
2022-11-29T16:35:24.579Z,21.27
2022-11-29T16:40:25.953Z,23.93
2022-11-29T16:43:05.310Z,25.27
2022-11-29T16:45:37.027Z,23.50
2022-11-29T16:48:26.792Z,19.50
2022-11-29T16:51:14.715Z,23.37
2022-11-29T16:53:50.456Z,24.57
2022-11-29T16:56:21.164Z,26.73
2022-11-29T16:59:20.879Z,24.77
2022-11-29T17:01:42.238Z,24.13
2022-11-29T17:04:10.174Z,27.13
2022-11-29T17:06:37.924Z,27.90
2022-11-29T17:09:05.869Z,22.40
2022-11-29T17:11:33.093Z,28.07
2022-11-29T17:14:00.820Z,26.97
2022-11-29T17:16:28.389Z,27.10
2022-11-29T17:18:56.158Z,26.10
2022-11-29T17:21:26.401Z,28.53
2022-11-29T17:23:54.772Z,23.97
2022-11-29T17:26:22.557Z,27.40
2022-11-29T17:28:51.761Z,26.87
2022-11-29T17:31:24.280Z,22.70
2022-11-29T17:36:20.831Z,22.20
2022-11-29T17:38:48.774Z,21.90
2022-11-29T17:41:18.826Z,25.67
2022-11-29T17:43:46.444Z,29.63
2022-11-29T17:46:19.247Z,27.13
2022-11-29T17:48:47.187Z,24.47
2022-11-29T17:51:50.476Z,22.73
2022-11-29T17:54:11.662Z,24.17
2022-11-29T17:56:42.170Z,21.10
2022-11-29T17:59:13.181Z,30.43
2022-11-29T18:01:42.335Z,23.13
2022-11-29T18:04:11.610Z,23.70
2022-11-29T18:06:43.724Z,25.33
2022-11-29T18:09:13.163Z,22.40
2022-11-29T18:11:48.570Z,23.87
2022-11-29T18:14:20.886Z,22.40
2022-11-29T18:16:49.093Z,22.33
2022-11-29T18:19:22.035Z,24.43
2022-11-29T18:21:52.526Z,23.47
2022-11-29T18:24:21.510Z,21.23
2022-11-29T18:26:49.453Z,28.27
2022-11-29T18:29:17.457Z,22.63
2022-11-29T18:31:50.275Z,25.10
2022-11-29T18:34:18.072Z,24.53
2022-11-29T18:36:48.268Z,23.73
2022-11-29T18:39:20.762Z,23.90
2022-11-29T18:41:53.227Z,22.80
2022-11-29T18:46:50.518Z,24.47
2022-11-29T18:49:23.100Z,22.30
2022-11-29T18:54:22.085Z,22.23
2022-11-29T18:56:52.400Z,24.13
2022-11-29T18:59:26.376Z,25.87
2022-11-29T19:01:54.970Z,22.93
2022-11-29T19:04:29.336Z,27.77
2022-11-29T19:07:00.695Z,24.27
2022-11-29T19:09:30.593Z,23.30
2022-11-29T19:12:00.241Z,21.70
2022-11-29T19:14:27.840Z,23.13
2022-11-29T19:16:55.706Z,25.17
2022-11-29T19:19:29.561Z,22.97
2022-11-29T19:22:00.263Z,21.83
2022-11-29T19:24:31.371Z,22.20
2022-11-29T19:27:01.264Z,25.80
2022-11-29T19:29:39.395Z,24.13
2022-11-29T19:32:10.267Z,21.93
2022-11-29T19:34:42.154Z,21.67
2022-11-29T19:37:13.653Z,17.08
2022-11-29T19:39:44.872Z,22.57
2022-11-29T19:42:16.063Z,25.73
2022-11-29T19:45:15.459Z,25.23
2022-11-29T19:47:35.918Z,24.13
2022-11-29T19:50:10.531Z,23.10
2022-11-29T19:52:40.863Z,23.33
2022-11-29T19:55:17.540Z,20.97
2022-11-29T19:57:45.549Z,25.23
2022-11-29T20:00:14.323Z,27.13
2022-11-29T20:02:42.760Z,25.57
2022-11-29T20:05:10.984Z,24.07
2022-11-29T20:07:40.816Z,24.93
2022-11-29T20:10:12.801Z,23.13
2022-11-29T20:12:41.184Z,22.88
2022-11-29T20:15:13.404Z,24.53
2022-11-29T20:17:50.941Z,26.17
2022-11-29T20:20:22.357Z,23.80
2022-11-29T20:22:58.215Z,21.77
2022-11-29T20:25:27.394Z,27.20
2022-11-29T20:27:57.480Z,25.20
2022-11-29T20:30:29.713Z,23.10
2022-11-29T20:33:00.425Z,22.53
2022-11-29T20:35:32.520Z,22.77
2022-11-29T20:38:11.392Z,22.13
2022-11-29T20:41:03.172Z,22.57
2022-11-29T20:43:44.654Z,24.20
2022-11-29T20:46:20.690Z,22.73
2022-11-29T20:48:54.946Z,22.43
2022-11-29T20:51:40.811Z,22.50
2022-11-29T20:54:11.484Z,23.23
2022-11-29T20:56:42.554Z,23.03
2022-11-29T20:59:10.554Z,25.00
2022-11-29T21:01:38.891Z,26.00
2022-11-29T21:04:09.869Z,21.93
2022-11-29T21:06:38.780Z,24.50
2022-11-29T21:09:07.033Z,20.07
2022-11-29T21:11:35.014Z,22.13
2022-11-29T21:14:04.631Z,29.67
2022-11-29T21:16:32.772Z,23.80
2022-11-29T21:19:02.963Z,20.83
2022-11-29T21:21:54.319Z,24.87
2022-11-29T21:24:39.803Z,26.20
2022-11-29T21:27:13.042Z,28.73
2022-11-29T21:29:40.970Z,24.77
2022-11-29T21:32:19.717Z,27.07
2022-11-29T21:34:47.874Z,24.73
2022-11-29T21:37:18.799Z,27.13
2022-11-29T21:39:47.525Z,40.80
2022-11-29T21:42:15.677Z,55.00
2022-11-29T21:44:43.233Z,26.07
2022-11-29T21:47:10.991Z,29.67
2022-11-29T21:49:38.928Z,24.50
2022-11-29T21:52:07.103Z,23.13
2022-11-29T21:54:34.828Z,29.30
2022-11-29T21:57:03.521Z,24.90
2022-11-29T21:59:31.274Z,22.77
2022-11-29T22:01:59.190Z,29.73
2022-11-29T22:04:27.089Z,27.37
2022-11-29T22:06:55.082Z,27.03
2022-11-29T22:09:22.996Z,27.33
2022-11-29T22:11:50.385Z,24.60
2022-11-29T22:14:20.024Z,23.23
2022-11-29T22:17:00.021Z,24.13
2022-11-29T22:19:33.163Z,22.63
2022-11-29T22:22:04.849Z,25.80
2022-11-29T22:24:34.773Z,24.20
2022-11-29T22:27:02.930Z,26.07
2022-11-29T22:29:30.983Z,20.93
2022-11-29T22:31:59.621Z,22.50
2022-11-29T22:34:27.737Z,18.90
2022-11-29T22:36:55.664Z,21.87
2022-11-29T22:39:24.252Z,24.53
2022-11-29T22:41:54.762Z,18.37
2022-11-29T22:44:24.261Z,22.80
2022-11-29T22:46:52.073Z,22.53
2022-11-29T22:49:20.129Z,24.50
2022-11-29T22:51:48.472Z,24.40
2022-11-29T22:54:16.643Z,23.10
2022-11-29T22:56:45.374Z,25.53
2022-11-29T22:59:13.839Z,25.97
2022-11-29T23:01:42.186Z,27.37
2022-11-29T23:04:11.683Z,22.57
2022-11-29T23:06:44.080Z,22.00
2022-11-29T23:09:16.887Z,24.25
2022-11-29T23:11:47.210Z,24.63
2022-11-29T23:14:15.965Z,27.60
2022-11-29T23:16:44.392Z,22.20
2022-11-29T23:19:13.404Z,24.87
2022-11-29T23:21:41.844Z,21.73
2022-11-29T23:24:09.596Z,24.17
2022-11-29T23:26:40.408Z,21.57
2022-11-29T23:29:11.611Z,21.13
2022-11-29T23:31:39.843Z,20.00
2022-11-29T23:34:08.017Z,21.40
2022-11-29T23:36:35.834Z,20.60
2022-11-29T23:39:04.238Z,19.40
2022-11-29T23:41:31.998Z,22.83
2022-11-29T23:44:00.940Z,21.23
2022-11-29T23:46:28.719Z,22.30
2022-11-29T23:48:56.523Z,24.27
2022-11-29T23:51:24.374Z,17.93
2022-11-29T23:53:53.409Z,23.37
2022-11-29T23:56:22.008Z,19.93
2022-11-29T23:58:49.665Z,20.20
